Weather reports worldwide

Advertisment
Nimes/Courbessac, France (7645): temperature & dewpoint: 05.07.2020 17:00:00 - 11.07.2020 17:00:00 (CEST)Nimes/Courbessac, France (7645): temperature 5cm: 05.07.2020 17:00:00 - 11.07.2020 17:00:00 (CEST)Nimes/Courbessac, France (7645): temperature -20cm: 05.07.2020 17:00:00 - 11.07.2020 17:00:00 (CEST)Nimes/Courbessac, France (7645): wind speed & gusts: 05.07.2020 17:00:00 - 11.07.2020 17:00:00 (CEST)Nimes/Courbessac, France (7645): wind direction: 05.07.2020 17:00:00 - 11.07.2020 17:00:00 (CEST)Nimes/Courbessac, France (7645): reduced air pressure: 05.07.2020 17:00:00 - 11.07.2020 17:00:00 (CEST)Nimes/Courbessac, France (7645): sunshine duration: 05.07.2020 17:00:00 - 11.07.2020 17:00:00 (CEST)Nimes/Courbessac, France (7645): precipitation: 05.07.2020 17:00:00 - 11.07.2020 17:00:00 (CEST)
Date & Time tt [°C] td [°C] tt 5cm [°C] tt -20cm [°C] ff [km/h] ff [kn] fx [km/h] fx [kn] dd ppp [hPa] sd [min] rr [mm]
11.07.2020 17:00:00 - - - - - - - - - - - -
11.07.2020 16:00:00 30,4 7,6 35,8 32,0 23 12 48 26 NNW 1016,4 60 0,0
11.07.2020 15:00:00 30,3 9,8 35,3 31,2 23 12 51 28 NNW 1016,7 60 0,0
11.07.2020 14:00:00 29,2 10,3 34,2 30,5 23 13 47 26 N 1017,2 60 0,0
11.07.2020 13:00:00 29,0 11,1 32,8 29,8 24 13 51 28 N 1017,2 60 0,0
11.07.2020 12:00:00 28,0 12,8 31,8 29,2 22 12 52 28 N 1017,2 60 0,0
11.07.2020 11:00:00 27,1 13,1 30,4 29,0 21 11 46 25 N 1017,1 60 0,0
11.07.2020 10:00:00 25,4 13,3 28,0 28,9 21 11 41 22 NNW 1017,4 60 0,0
11.07.2020 09:00:00 24,2 13,1 24,7 29,1 23 12 46 25 N 1017,2 60 0,0
11.07.2020 08:00:00 23,1 13,3 21,8 29,4 16 9 39 21 NNW 1017,1 60 0,0
11.07.2020 07:00:00 21,9 14,0 21,0 29,8 16 9 32 18 N 1016,7 20 0,0
11.07.2020 06:00:00 21,7 14,8 21,3 30,2 16 9 50 27 N 1016,3 0 0,0
11.07.2020 05:00:00 21,9 15,0 21,5 30,6 12 7 32 17 N 1015,8 0 0,0
11.07.2020 04:00:00 22,5 15,1 22,0 31,1 10 5 29 15 N 1015,7 0 0,0
11.07.2020 03:00:00 23,0 16,1 22,3 31,5 11 6 26 14 NNE 1015,8 0 0,0
11.07.2020 02:00:00 23,2 16,7 22,4 31,9 5 3 32 17 NNE 1015,7 0 0,0
11.07.2020 01:00:00 23,9 17,4 23,6 32,3 16 9 35 19 N 1015,4 0 0,0
11.07.2020 00:00:00 24,2 17,7 24,0 32,7 16 8 32 18 N 1015,1 0 0,0
10.07.2020 23:00:00 24,5 19,3 24,1 33,1 9 5 19 10 NNE 1014,7 0 0,0
10.07.2020 22:00:00 25,9 19,1 25,5 33,4 11 6 19 11 ENE 1014,0 0 0,0
10.07.2020 21:00:00 26,5 18,6 26,8 33,7 11 6 32 17 S 1013,3 21 0,0
10.07.2020 20:00:00 27,5 18,2 28,4 33,8 13 7 35 19 SW 1013,6 17 0,0
10.07.2020 19:00:00 29,6 17,1 30,5 33,8 18 10 41 22 SW 1012,9 26 0,0
10.07.2020 18:00:00 31,3 19,0 35,8 33,5 23 12 40 22 S 1012,5 60 0,0
10.07.2020 17:00:00 34,0 18,9 39,3 32,8 19 10 34 18 SSW 1012,5 60 0,0
10.07.2020 16:00:00 34,7 16,5 39,8 32,0 12 7 27 15 S 1012,8 45 0,0
10.07.2020 15:00:00 34,4 15,8 39,0 31,2 10 6 22 12 SE 1013,3 60 0,0
10.07.2020 14:00:00 33,7 17,4 38,4 30,2 10 5 16 9 ESE 1013,9 60 0,0
10.07.2020 13:00:00 30,7 17,0 33,9 29,5 5 3 16 9 SSW 1015,2 41 0,0
10.07.2020 12:00:00 29,1 17,3 33,9 29,0 8 5 18 10 SE 1015,5 56 0,0
10.07.2020 11:00:00 27,5 17,9 31,4 28,6 9 5 17 9 SSE 1016,1 60 0,0
10.07.2020 10:00:00 24,7 19,3 23,4 28,5 4 2 12 6 S 1015,9 43 0,0
10.07.2020 09:00:00 21,7 19,1 22,2 28,7 4 2 8 4 S 1015,9 0 0,0
10.07.2020 08:00:00 20,8 19,1 19,5 29,0 2 1 6 3 SSE 1016,0 20 0,0
10.07.2020 07:00:00 19,5 18,0 18,0 29,3 0 0 7 4 N 1015,8 26 0,0
10.07.2020 06:00:00 19,0 17,8 17,4 29,7 2 1 5 3 NNW 1015,6 0 0,0
10.07.2020 05:00:00 20,2 18,5 18,8 30,1 0 0 9 5 N 1015,7 0 0,0
10.07.2020 04:00:00 20,1 18,6 19,0 30,5 0 0 9 5 N 1015,3 0 0,0
10.07.2020 03:00:00 20,5 19,3 19,6 30,9 5 3 10 5 NE 1015,5 0 0,0
10.07.2020 02:00:00 20,2 18,9 19,2 31,4 5 3 10 5 NE 1015,7 0 0,0
10.07.2020 01:00:00 20,1 18,4 19,1 31,9 6 3 9 5 E 1016,2 0 0,0
10.07.2020 00:00:00 21,4 18,2 20,2 32,3 6 4 12 6 E 1016,2 0 0,0
09.07.2020 23:00:00 23,1 17,8 22,5 32,7 10 5 23 12 S 1016,0 0 0,0
09.07.2020 22:00:00 24,0 19,1 23,5 33,1 10 6 18 10 S 1015,5 1 0,0
09.07.2020 21:00:00 26,1 17,7 26,1 33,4 14 7 29 16 S 1015,1 60 0,0
09.07.2020 20:00:00 29,2 14,2 31,4 33,6 16 9 29 16 S 1014,7 60 0,0
09.07.2020 19:00:00 31,9 10,0 34,9 33,5 16 9 32 18 SSW 1014,5 60 0,0
09.07.2020 18:00:00 33,0 10,4 37,0 33,2 14 8 33 18 SW 1014,8 60 0,0
09.07.2020 17:00:00 33,4 11,3 37,9 32,6 19 10 30 16 SSW 1015,1 60 0,0
09.07.2020 16:00:00 33,2 10,5 38,7 31,7 19 10 33 18 SSW 1015,6 60 0,0
09.07.2020 15:00:00 33,1 11,6 38,8 30,8 16 8 31 17 SSW 1015,9 60 0,0
09.07.2020 14:00:00 33,0 13,6 39,5 29,8 12 7 24 13 SSW 1016,1 60 0,0
09.07.2020 13:00:00 32,2 11,4 37,6 28,9 13 7 23 12 SSW 1016,5 60 0,0
09.07.2020 12:00:00 30,7 11,6 35,4 28,1 6 3 16 8 S 1016,8 60 0,0
09.07.2020 11:00:00 29,1 12,1 33,1 27,7 5 3 17 9 S 1017,2 60 0,0
09.07.2020 10:00:00 26,6 13,7 29,9 27,5 10 5 15 8 SSE 1017,3 60 0,0
09.07.2020 09:00:00 24,2 13,1 24,0 27,7 7 4 13 7 S 1017,2 60 0,0
09.07.2020 08:00:00 21,0 14,2 17,0 28,0 0 0 6 4 N 1016,6 60 0,0
09.07.2020 07:00:00 17,3 13,0 15,7 28,4 5 3 9 5 NNW 1016,4 25 0,0
09.07.2020 06:00:00 16,8 14,1 15,7 28,8 4 2 9 5 NNW 1016,4 0 0,0
09.07.2020 05:00:00 16,9 13,4 15,7 29,3 4 2 9 5 NNW 1016,7 0 0,0
09.07.2020 04:00:00 17,0 11,9 15,4 29,8 4 2 7 4 N 1017,0 0 0,0
09.07.2020 03:00:00 17,6 10,2 16,3 30,3 4 2 8 4 N 1016,9 0 0,0
09.07.2020 02:00:00 18,6 10,4 16,4 30,8 4 2 8 4 NW 1016,9 0 0,0
09.07.2020 01:00:00 19,6 10,3 17,8 31,3 3 2 7 4 NNW 1017,0 0 0,0
09.07.2020 00:00:00 21,2 10,7 19,3 31,9 2 1 15 8 NE 1016,9 0 0,0
08.07.2020 23:00:00 23,7 10,7 22,4 32,3 9 5 18 10 SSW 1016,8 0 0,0
08.07.2020 22:00:00 25,7 9,1 24,5 32,7 9 5 18 10 SW 1016,0 0 0,0
08.07.2020 21:00:00 27,6 8,0 27,1 33,1 11 6 22 12 SSW 1015,2 60 0,0
08.07.2020 20:00:00 30,0 9,0 32,8 33,2 11 6 23 12 SSW 1014,9 60 0,0
08.07.2020 19:00:00 31,0 9,2 34,5 33,2 13 7 29 16 SW 1014,8 60 0,0
08.07.2020 18:00:00 32,6 9,4 37,0 32,9 15 8 31 17 SSW 1015,1 60 0,0
08.07.2020 17:00:00 32,9 9,7 39,6 32,1 14 8 29 16 S 1015,2 60 0,0
08.07.2020 16:00:00 33,2 7,2 40,5 31,2 8 4 21 11 N 1015,4 60 0,0
08.07.2020 15:00:00 34,5 8,3 39,1 30,2 13 7 24 13 E 1015,9 60 0,0
08.07.2020 14:00:00 33,0 7,8 37,9 29,1 10 5 21 12 ENE 1016,3 60 0,0
08.07.2020 13:00:00 31,5 8,5 36,6 28,2 12 7 23 12 NE 1016,5 60 0,0
08.07.2020 12:00:00 29,2 8,3 34,3 27,5 9 5 29 16 N 1016,8 60 0,0
08.07.2020 11:00:00 27,9 8,2 31,1 27,1 15 8 33 18 N 1016,7 60 0,0
08.07.2020 10:00:00 26,4 7,4 28,6 26,9 18 10 43 23 N 1016,4 60 0,0
08.07.2020 09:00:00 24,5 7,2 24,3 27,0 16 8 29 16 N 1016,3 60 0,0
08.07.2020 08:00:00 21,7 6,8 18,7 27,3 11 6 24 13 NNW 1016,1 53 0,0
08.07.2020 07:00:00 19,4 6,1 18,6 27,7 11 6 21 11 NNW 1016,0 4 0,0
08.07.2020 06:00:00 20,0 6,0 19,0 28,1 11 6 22 12 NNW 1015,8 0 0,0
08.07.2020 05:00:00 20,9 6,0 19,9 28,4 11 6 22 12 NNW 1015,7 0 0,0
08.07.2020 04:00:00 21,2 5,9 19,9 28,8 9 5 24 13 NNW 1015,9 0 0,0
08.07.2020 03:00:00 21,6 6,3 20,2 29,3 11 6 23 12 NNW 1016,0 0 0,0
08.07.2020 02:00:00 21,7 6,0 20,4 29,7 10 6 22 12 NNW 1016,3 0 0,0
08.07.2020 01:00:00 22,0 4,5 20,5 30,2 7 4 16 8 NNW 1016,3 0 0,0
08.07.2020 00:00:00 22,5 3,6 20,7 30,7 8 4 16 9 NNW 1015,9 0 0,0
07.07.2020 23:00:00 23,5 3,4 21,5 31,2 5 3 15 8 NNW 1015,8 0 0,0
07.07.2020 22:00:00 25,1 3,1 24,0 31,5 10 6 24 13 N 1015,2 1 0,0
07.07.2020 21:00:00 26,9 3,4 26,0 31,9 12 7 30 16 NNE 1014,5 60 0,0
07.07.2020 20:00:00 29,5 2,7 30,8 32,1 16 9 35 19 NNE 1014,1 60 0,0
07.07.2020 19:00:00 30,7 2,0 33,7 32,0 16 9 41 22 NNE 1014,0 60 0,0
07.07.2020 18:00:00 31,3 1,6 35,3 31,7 16 9 42 23 NNE 1014,1 60 0,0
07.07.2020 17:00:00 31,5 1,7 35,3 31,1 22 12 47 26 NNE 1014,5 60 0,0
07.07.2020 16:00:00 30,7 2,0 34,9 30,4 25 13 52 28 NNE 1014,6 60 0,0
07.07.2020 15:00:00 29,6 1,1 34,3 29,5 29 16 50 27 NNE 1014,5 60 0,0
07.07.2020 14:00:00 28,6 2,7 33,1 28,7 26 14 55 30 N 1014,7 60 0,0
07.07.2020 13:00:00 27,8 2,8 31,6 27,9 24 13 57 31 N 1014,8 60 0,0
07.07.2020 12:00:00 26,7 3,8 29,7 27,4 27 15 60 32 N 1014,9 60 0,0
07.07.2020 11:00:00 24,7 3,9 27,7 27,0 30 16 63 34 N 1014,8 60 0,0
07.07.2020 10:00:00 23,7 4,6 25,1 27,0 21 11 51 28 N 1014,9 60 0,0
07.07.2020 09:00:00 21,6 4,2 22,2 27,1 23 13 54 29 NNW 1014,7 60 0,0
07.07.2020 08:00:00 20,7 3,8 18,7 27,4 15 8 57 31 NNE 1014,7 60 0,0
07.07.2020 07:00:00 19,5 3,6 18,6 27,8 20 11 75 40 N 1014,2 27 0,0
07.07.2020 06:00:00 19,2 4,1 18,7 28,2 31 17 68 37 NNW 1014,1 0 0,0
07.07.2020 05:00:00 19,5 4,4 18,9 28,7 31 17 62 34 NNW 1014,4 0 0,0
07.07.2020 04:00:00 19,9 4,8 19,3 29,2 29 15 59 32 NNW 1014,9 0 0,0
07.07.2020 03:00:00 20,5 5,3 19,9 29,8 28 15 64 35 NNW 1015,3 0 0,0
07.07.2020 02:00:00 20,9 5,3 20,3 30,3 19 10 55 30 NW 1015,8 0 0,0
07.07.2020 01:00:00 21,7 4,7 21,1 30,9 22 12 52 28 NNW 1016,1 0 0,0
07.07.2020 00:00:00 22,3 5,2 21,7 31,5 22 12 49 26 NNW 1016,4 0 0,0
06.07.2020 23:00:00 23,5 6,3 22,7 32,0 16 9 34 18 N 1016,4 0 0,0
06.07.2020 22:00:00 25,0 7,2 24,2 32,5 17 9 40 22 N 1015,6 2 0,0
06.07.2020 21:00:00 26,8 7,3 26,2 32,8 15 8 54 29 N 1014,6 60 0,0
06.07.2020 20:00:00 29,4 4,1 30,6 33,1 20 11 49 26 N 1013,9 60 0,0
06.07.2020 19:00:00 30,4 7,6 33,6 33,2 25 14 48 26 N 1013,5 60 0,0
06.07.2020 18:00:00 31,8 7,5 34,7 33,0 22 12 53 29 N 1013,4 60 0,0
06.07.2020 17:00:00 32,6 9,4 37,7 32,5 25 14 50 27 NNE 1013,2 60 0,0
06.07.2020 16:00:00 32,5 9,9 37,6 31,8 21 11 52 28 N 1013,3 60 0,0
06.07.2020 15:00:00 32,4 12,1 36,8 31,0 22 12 46 25 N 1013,4 60 0,0
06.07.2020 14:00:00 32,0 10,7 36,6 30,2 24 13 54 29 N 1013,9 60 0,0
06.07.2020 13:00:00 30,8 12,2 35,4 29,5 23 13 50 27 N 1014,2 60 0,0
06.07.2020 12:00:00 30,4 12,3 34,6 28,8 24 13 53 29 NNW 1014,7 60 0,0
06.07.2020 11:00:00 28,7 13,8 31,9 28,4 22 12 44 24 NNW 1015,3 60 0,0
06.07.2020 10:00:00 27,4 13,3 30,1 28,3 20 11 40 21 NNW 1015,4 60 0,0
06.07.2020 09:00:00 26,2 14,3 26,5 28,5 21 11 40 21 N 1015,5 60 0,0
06.07.2020 08:00:00 24,1 13,9 22,5 28,8 16 9 34 18 NNW 1015,3 60 0,0
06.07.2020 07:00:00 23,1 14,1 22,0 29,2 16 9 30 16 NW 1014,9 26 0,0
06.07.2020 06:00:00 23,2 14,2 22,2 29,6 15 8 28 15 NNW 1014,9 0 0,0
06.07.2020 05:00:00 23,8 14,8 22,8 30,0 13 7 26 14 NNW 1014,7 0 0,0
06.07.2020 04:00:00 24,3 15,0 23,3 30,4 10 6 22 12 NNW 1015,1 0 0,0
06.07.2020 03:00:00 24,8 14,9 23,8 30,8 8 5 23 12 WNW 1015,4 0 0,0
06.07.2020 02:00:00 26,0 14,8 25,1 31,2 13 7 29 16 N 1015,6 0 0,0
06.07.2020 01:00:00 26,4 15,1 25,2 31,7 9 5 21 11 NNW 1015,7 0 0,0
06.07.2020 00:00:00 27,0 15,1 25,9 32,1 7 4 17 9 NNW 1015,4 0 0,0
05.07.2020 23:00:00 28,3 15,2 27,3 32,5 8 4 29 15 NNW 1015,2 0 0,0
05.07.2020 22:00:00 29,1 15,2 28,3 32,9 14 8 29 15 NNE 1014,4 1 0,0
05.07.2020 21:00:00 31,0 15,8 30,4 33,1 13 7 27 15 NNE 1014,1 60 0,0
05.07.2020 20:00:00 34,3 15,7 35,9 33,3 14 7 35 19 NE 1013,8 60 0,0
05.07.2020 19:00:00 35,9 15,1 39,6 33,2 15 8 33 18 NNE 1013,8 60 0,0
05.07.2020 18:00:00 35,5 14,2 40,8 32,8 16 9 37 20 NNW 1014,3 60 0,0
05.07.2020 17:00:00 35,8 15,0 41,6 32,1 11 6 35 19 NNW 1014,5 60 0,0

tt = temperature
td = dewpoint
tt 5cm = temperature 5cm
tt -20cm = temperature -20cm
ff = wind speed
fx = gusts
dd = wind direction
ppp = reduced air pressure
sd = sunshine duration
rr = precipitation

Next stations